createdAt,value
2023-01-05T00:00:56.718Z,2.67
2023-01-05T00:03:24.431Z,2.40
2023-01-05T00:05:53.433Z,2.70
2023-01-05T00:08:21.099Z,2.90
2023-01-05T00:11:06.203Z,3.07
2023-01-05T00:13:51.474Z,3.17
2023-01-05T00:16:36.825Z,3.20
2023-01-05T00:19:22.220Z,3.40
2023-01-05T00:22:08.994Z,3.00
2023-01-05T00:24:36.616Z,3.00
2023-01-05T00:27:04.281Z,2.80
2023-01-05T00:29:31.929Z,3.40
2023-01-05T00:31:59.634Z,3.17
2023-01-05T00:34:27.315Z,3.60
2023-01-05T00:36:56.312Z,3.57
2023-01-05T00:39:24.032Z,3.10
2023-01-05T00:41:51.653Z,3.73
2023-01-05T00:44:19.353Z,3.53
2023-01-05T00:46:47.067Z,2.90
2023-01-05T00:49:14.726Z,2.40
2023-01-05T00:51:42.451Z,4.40
2023-01-05T00:54:11.449Z,3.07
2023-01-05T00:56:39.155Z,3.50
2023-01-05T00:59:06.871Z,2.67
2023-01-05T01:01:34.665Z,3.10
2023-01-05T01:04:02.324Z,3.37
2023-01-05T01:06:29.974Z,2.97
2023-01-05T01:08:59.027Z,4.03
2023-01-05T01:11:28.074Z,3.00
2023-01-05T01:13:55.749Z,2.87
2023-01-05T01:16:23.545Z,3.10
2023-01-05T01:18:51.542Z,3.13
2023-01-05T01:21:19.394Z,2.70
2023-01-05T01:23:47.019Z,3.40
2023-01-05T01:26:15.193Z,3.07
2023-01-05T01:28:44.202Z,3.00
2023-01-05T01:31:11.903Z,3.47
2023-01-05T01:33:40.894Z,3.07
2023-01-05T01:36:09.716Z,2.60
2023-01-05T01:38:37.884Z,2.90
2023-01-05T01:41:05.752Z,2.73
2023-01-05T01:43:46.843Z,2.73
2023-01-05T01:46:16.263Z,3.33
2023-01-05T01:48:48.044Z,2.93
2023-01-05T01:51:21.291Z,2.80
2023-01-05T01:53:52.562Z,3.53
2023-01-05T01:56:23.555Z,2.70
2023-01-05T01:58:53.121Z,3.13
2023-01-05T02:01:21.112Z,3.40
2023-01-05T02:03:49.010Z,2.67
2023-01-05T02:06:16.865Z,4.20
2023-01-05T02:08:45.082Z,3.27
2023-01-05T02:11:32.049Z,2.80
2023-01-05T02:14:23.205Z,2.70
2023-01-05T02:17:05.710Z,3.37
2023-01-05T02:20:05.287Z,4.17
2023-01-05T02:23:15.856Z,2.90
2023-01-05T02:26:24.269Z,2.73
2023-01-05T02:29:39.966Z,2.43
2023-01-05T02:32:17.371Z,3.07
2023-01-05T02:34:50.223Z,2.70
2023-01-05T02:37:24.066Z,2.53
2023-01-05T02:39:57.135Z,3.33
2023-01-05T02:42:25.863Z,3.00
2023-01-05T02:44:53.795Z,2.97
2023-01-05T02:47:38.691Z,3.23
2023-01-05T02:50:12.142Z,3.10
2023-01-05T02:52:43.847Z,3.40
2023-01-05T02:55:15.950Z,2.83
2023-01-05T02:57:50.521Z,2.67
2023-01-05T03:00:20.996Z,3.37
2023-01-05T03:02:53.493Z,2.57
2023-01-05T03:05:26.717Z,2.33
2023-01-05T03:08:07.542Z,2.23
2023-01-05T03:10:58.413Z,2.00
2023-01-05T03:13:43.952Z,2.40
2023-01-05T03:16:15.962Z,2.97
2023-01-05T03:19:03.476Z,2.17
2023-01-05T03:21:45.485Z,3.17
2023-01-05T03:24:31.152Z,2.50
2023-01-05T03:27:16.805Z,2.90
2023-01-05T03:30:02.036Z,2.57
2023-01-05T03:32:48.763Z,2.67
2023-01-05T03:35:34.631Z,2.50
2023-01-05T03:38:10.529Z,2.43
2023-01-05T03:40:42.879Z,2.40
2023-01-05T03:43:11.006Z,2.40
2023-01-05T03:45:43.059Z,2.80
2023-01-05T03:48:10.728Z,3.10
2023-01-05T03:50:39.762Z,3.70
2023-01-05T03:53:08.003Z,3.13
2023-01-05T03:55:35.694Z,2.83
2023-01-05T03:58:03.489Z,3.30
2023-01-05T04:00:31.148Z,3.00
2023-01-05T04:02:58.875Z,3.60
2023-01-05T04:05:26.610Z,3.03
2023-01-05T04:07:55.663Z,3.63
2023-01-05T04:10:23.280Z,3.57
2023-01-05T04:12:50.977Z,4.10
2023-01-05T04:15:18.833Z,3.83
2023-01-05T04:17:46.507Z,3.07
2023-01-05T04:20:14.169Z,3.07
2023-01-05T04:22:41.825Z,4.03
2023-01-05T04:25:11.079Z,3.63
2023-01-05T04:27:38.691Z,2.57
2023-01-05T04:30:07.610Z,3.80
2023-01-05T04:32:35.306Z,4.10
2023-01-05T04:35:10.673Z,3.57
2023-01-05T04:37:39.236Z,3.13
2023-01-05T04:40:08.105Z,2.93
2023-01-05T04:42:37.121Z,3.40
2023-01-05T04:45:05.376Z,2.63
2023-01-05T04:47:33.025Z,3.77
2023-01-05T04:50:00.673Z,2.60
2023-01-05T04:52:28.415Z,3.30
2023-01-05T04:54:56.151Z,3.17
2023-01-05T04:57:23.814Z,4.17
2023-01-05T04:59:53.102Z,3.10
2023-01-05T05:02:20.976Z,4.00
2023-01-05T05:04:48.831Z,2.93
2023-01-05T05:07:16.590Z,3.20
2023-01-05T05:09:44.229Z,2.63
2023-01-05T05:12:11.919Z,3.13
2023-01-05T05:14:39.554Z,2.83
2023-01-05T05:17:08.603Z,3.17
2023-01-05T05:19:36.271Z,2.70
2023-01-05T05:22:03.933Z,3.23
2023-01-05T05:24:31.665Z,2.37
2023-01-05T05:26:59.361Z,2.90
2023-01-05T05:29:27.052Z,2.03
2023-01-05T05:31:55.037Z,2.70
2023-01-05T05:34:24.148Z,2.57
2023-01-05T05:36:51.903Z,2.67
2023-01-05T05:39:20.523Z,2.77
2023-01-05T05:41:48.169Z,2.50
2023-01-05T05:44:15.872Z,2.70
2023-01-05T05:46:43.719Z,3.03
2023-01-05T05:49:11.536Z,3.23
2023-01-05T05:51:40.558Z,3.37
2023-01-05T05:54:08.242Z,3.10
2023-01-05T05:56:35.874Z,3.53
2023-01-05T05:59:03.551Z,3.20
2023-01-05T06:01:31.334Z,3.63
2023-01-05T06:03:59.454Z,3.47
2023-01-05T06:06:27.315Z,3.83
2023-01-05T06:08:56.278Z,3.50
2023-01-05T06:11:23.940Z,3.80
2023-01-05T06:13:52.035Z,2.90
2023-01-05T06:16:19.747Z,2.83
2023-01-05T06:18:47.380Z,3.20
2023-01-05T06:21:15.023Z,3.53
2023-01-05T06:23:42.707Z,3.00
2023-01-05T06:26:11.717Z,3.33
2023-01-05T06:28:39.383Z,2.93
2023-01-05T06:31:07.222Z,2.67
2023-01-05T06:33:35.038Z,3.13
2023-01-05T06:36:02.673Z,3.40
2023-01-05T06:38:30.377Z,3.57
2023-01-05T06:40:59.342Z,3.17
2023-01-05T06:43:28.412Z,3.17
2023-01-05T06:45:56.122Z,4.57
2023-01-05T06:48:23.975Z,3.33
2023-01-05T06:50:51.615Z,4.27
2023-01-05T06:53:19.365Z,4.40
2023-01-05T06:55:47.278Z,3.30
2023-01-05T06:58:15.001Z,3.47
2023-01-05T07:00:44.224Z,2.90
2023-01-05T07:03:14.548Z,3.70
2023-01-05T07:05:43.198Z,3.80
2023-01-05T07:08:11.044Z,4.03
2023-01-05T07:10:38.694Z,3.00
2023-01-05T07:13:06.355Z,3.13
2023-01-05T07:15:34.117Z,2.90
2023-01-05T07:18:03.137Z,3.23
2023-01-05T07:20:30.810Z,2.87
2023-01-05T07:22:59.123Z,2.87
2023-01-05T07:25:31.252Z,3.27
2023-01-05T07:27:59.174Z,3.40
2023-01-05T07:30:27.248Z,3.37
2023-01-05T07:32:59.048Z,3.50
2023-01-05T07:35:28.537Z,3.23
2023-01-05T07:37:57.088Z,3.70
2023-01-05T07:40:24.954Z,2.67
2023-01-05T07:42:53.413Z,3.03
2023-01-05T07:45:22.034Z,3.60
2023-01-05T07:47:49.838Z,3.13
2023-01-05T07:50:17.512Z,3.63
2023-01-05T07:52:46.543Z,3.67
2023-01-05T07:55:14.209Z,3.23
2023-01-05T07:57:41.870Z,3.00
2023-01-05T08:00:14.115Z,3.33
2023-01-05T08:02:42.192Z,3.70
2023-01-05T08:05:10.635Z,3.40
2023-01-05T08:07:38.603Z,3.60
2023-01-05T08:10:25.951Z,3.50
2023-01-05T08:13:11.051Z,3.97
2023-01-05T08:15:38.831Z,3.30
2023-01-05T08:18:06.645Z,3.33
2023-01-05T08:20:34.333Z,3.77
2023-01-05T08:23:01.952Z,2.47
2023-01-05T08:25:31.142Z,3.40
2023-01-05T08:27:59.977Z,3.00
2023-01-05T08:30:27.793Z,2.50
2023-01-05T08:32:55.429Z,3.33
2023-01-05T08:35:23.150Z,3.20
2023-01-05T08:37:50.774Z,2.87
2023-01-05T08:40:18.476Z,3.30
2023-01-05T08:42:48.237Z,3.30
2023-01-05T08:45:16.413Z,3.63
2023-01-05T08:47:44.745Z,2.90
2023-01-05T08:50:12.907Z,2.53
2023-01-05T08:52:40.938Z,2.70
2023-01-05T08:55:09.210Z,2.83
2023-01-05T08:57:37.168Z,2.30
2023-01-05T09:00:07.879Z,2.77
2023-01-05T09:02:35.957Z,3.00
2023-01-05T09:05:04.052Z,2.70
2023-01-05T09:07:31.708Z,3.10
2023-01-05T09:09:59.413Z,3.00
2023-01-05T09:12:32.797Z,3.30
2023-01-05T09:15:00.968Z,3.33
2023-01-05T09:17:30.166Z,3.20
2023-01-05T09:19:57.841Z,3.80
2023-01-05T09:22:25.604Z,2.97
2023-01-05T09:24:53.360Z,3.50
2023-01-05T09:27:21.153Z,3.10
2023-01-05T09:29:48.798Z,3.40
2023-01-05T09:32:16.706Z,2.90
2023-01-05T09:34:45.752Z,3.23
2023-01-05T09:37:13.444Z,3.27
2023-01-05T09:39:41.181Z,3.47
2023-01-05T09:42:13.633Z,3.90
2023-01-05T09:44:44.769Z,4.23
2023-01-05T09:47:16.621Z,3.23
2023-01-05T09:49:47.229Z,2.83
2023-01-05T09:52:15.150Z,2.60
2023-01-05T09:54:42.954Z,3.17
2023-01-05T09:57:18.157Z,2.63
2023-01-05T09:59:48.166Z,3.53
2023-01-05T10:02:21.416Z,3.47
2023-01-05T10:04:51.862Z,2.63
2023-01-05T10:07:27.779Z,2.43
2023-01-05T10:09:59.717Z,3.00
2023-01-05T10:12:50.747Z,2.60
2023-01-05T10:15:21.555Z,2.73
2023-01-05T10:17:49.802Z,2.50
2023-01-05T10:20:26.618Z,2.53
2023-01-05T10:23:04.062Z,2.30
2023-01-05T10:25:39.869Z,2.40
2023-01-05T10:28:28.165Z,2.03
2023-01-05T10:31:00.141Z,2.13
2023-01-05T10:33:52.520Z,2.00
2023-01-05T10:37:11.606Z,2.00
2023-01-05T10:40:00.228Z,1.90
2023-01-05T10:42:40.844Z,2.37
2023-01-05T10:45:10.637Z,1.70
2023-01-05T10:47:40.924Z,2.17
2023-01-05T10:50:27.154Z,2.23
2023-01-05T10:52:56.282Z,2.53
2023-01-05T10:55:24.934Z,2.40
2023-01-05T10:57:52.621Z,2.10
2023-01-05T11:00:22.278Z,2.20
2023-01-05T11:02:52.083Z,2.57
2023-01-05T11:05:31.864Z,2.43
2023-01-05T11:08:04.241Z,2.20
2023-01-05T11:10:33.909Z,2.60
2023-01-05T11:13:04.482Z,2.70
2023-01-05T11:15:34.722Z,1.37
2023-01-05T11:18:03.608Z,1.23
2023-01-05T11:20:31.293Z,1.33
2023-01-05T11:22:59.022Z,1.00
2023-01-05T11:25:33.002Z,0.70
2023-01-05T11:28:22.191Z,0.80
2023-01-05T11:31:01.265Z,0.53
2023-01-05T11:33:31.463Z,0.50
2023-01-05T11:35:59.810Z,0.63
2023-01-05T11:38:29.477Z,0.60
2023-01-05T11:41:00.115Z,0.60
2023-01-05T11:43:31.299Z,0.53
2023-01-05T11:46:03.359Z,0.60
2023-01-05T11:48:34.631Z,0.70
2023-01-05T11:51:02.742Z,0.70
2023-01-05T11:53:39.531Z,0.73
2023-01-05T11:56:21.599Z,0.60
2023-01-05T11:58:50.370Z,1.00
2023-01-05T12:01:44.652Z,0.80
2023-01-05T12:04:27.289Z,0.70
2023-01-05T12:07:04.743Z,0.63
2023-01-05T12:09:35.399Z,0.60
2023-01-05T12:12:39.220Z,0.50
2023-01-05T12:15:31.386Z,0.50
2023-01-05T12:18:08.077Z,0.70
2023-01-05T12:20:50.885Z,0.60
2023-01-05T12:23:36.726Z,0.43
2023-01-05T12:26:16.621Z,0.60
2023-01-05T12:35:41.162Z,0.60
2023-01-05T12:38:23.861Z,0.50
2023-01-05T12:41:16.932Z,0.40
2023-01-05T12:43:54.556Z,0.50
2023-01-05T12:46:37.419Z,0.50
2023-01-05T12:49:11.943Z,0.50
2023-01-05T12:51:44.577Z,0.60
2023-01-05T12:54:22.326Z,1.00
2023-01-05T12:56:55.376Z,0.93
2023-01-05T12:59:30.585Z,0.70
2023-01-05T13:02:04.776Z,0.70
2023-01-05T13:04:46.730Z,1.00
2023-01-05T13:07:21.844Z,1.00
2023-01-05T13:10:02.288Z,1.00
2023-01-05T13:12:32.548Z,0.93
2023-01-05T13:15:14.519Z,0.90
2023-01-05T13:17:46.767Z,0.50
2023-01-05T13:20:28.137Z,0.90
2023-01-05T13:23:01.391Z,0.90
2023-01-05T13:25:32.538Z,1.07
2023-01-05T13:28:00.233Z,1.17
2023-01-05T13:30:32.851Z,1.63
2023-01-05T13:33:25.276Z,1.57
2023-01-05T13:36:04.169Z,1.20
2023-01-05T13:39:06.539Z,1.13
2023-01-05T13:41:51.171Z,1.90
2023-01-05T13:44:35.839Z,1.33
2023-01-05T13:47:27.259Z,1.60
2023-01-05T13:50:30.192Z,1.40
2023-01-05T13:53:12.402Z,1.30
2023-01-05T13:55:46.885Z,1.40
2023-01-05T14:01:11.249Z,1.37
2023-01-05T14:03:42.760Z,1.10
2023-01-05T14:06:19.398Z,1.67
2023-01-05T14:08:53.470Z,1.40
2023-01-05T14:11:22.874Z,1.40
2023-01-05T14:13:53.970Z,1.30
2023-01-05T14:16:48.196Z,1.63
2023-01-05T14:19:22.507Z,1.67
2023-01-05T14:22:01.318Z,1.10
2023-01-05T14:24:32.758Z,0.97
2023-01-05T14:27:03.869Z,1.40
2023-01-05T14:30:11.481Z,1.47
2023-01-05T14:32:41.287Z,1.20
2023-01-05T14:35:31.581Z,1.30
2023-01-05T14:38:01.888Z,1.57
2023-01-05T14:40:34.250Z,2.07
2023-01-05T14:43:04.486Z,1.93
2023-01-05T14:45:34.787Z,1.83
2023-01-05T14:48:04.845Z,1.60
2023-01-05T14:50:37.080Z,1.20
2023-01-05T14:53:12.084Z,1.50
2023-01-05T14:55:42.234Z,1.40
2023-01-05T14:58:16.132Z,2.13
2023-01-05T15:00:54.859Z,2.70
2023-01-05T15:03:29.737Z,2.03
2023-01-05T15:06:04.724Z,3.67
2023-01-05T15:09:10.773Z,2.37
2023-01-05T15:12:01.390Z,2.73
2023-01-05T15:15:01.582Z,1.90
2023-01-05T15:18:13.783Z,1.63
2023-01-05T15:21:30.175Z,2.90
2023-01-05T15:24:31.190Z,2.57
2023-01-05T15:27:13.984Z,2.20
2023-01-05T15:30:01.511Z,1.77
2023-01-05T15:32:33.680Z,2.20
2023-01-05T15:35:06.148Z,2.23
2023-01-05T15:37:38.033Z,3.13
2023-01-05T15:40:09.136Z,3.30
2023-01-05T15:42:40.463Z,4.50
2023-01-05T15:45:19.759Z,3.80
2023-01-05T15:47:48.720Z,3.00
2023-01-05T15:50:20.417Z,3.07
2023-01-05T15:52:55.751Z,3.37
2023-01-05T15:55:24.444Z,4.40
2023-01-05T15:57:54.321Z,4.87
2023-01-05T16:00:25.411Z,4.13
2023-01-05T16:02:53.356Z,3.70
2023-01-05T16:05:23.223Z,3.00
2023-01-05T16:07:57.613Z,3.33
2023-01-05T16:10:30.621Z,2.97
2023-01-05T16:13:08.753Z,3.00
2023-01-05T16:15:39.520Z,3.07
2023-01-05T16:18:14.443Z,2.57
2023-01-05T16:20:46.668Z,3.63
2023-01-05T16:23:18.951Z,3.37
2023-01-05T16:25:51.191Z,3.50
2023-01-05T16:28:20.768Z,3.30
2023-01-05T16:30:49.893Z,3.03
2023-01-05T16:33:34.459Z,2.60
2023-01-05T16:36:21.880Z,3.33
2023-01-05T16:38:50.946Z,4.07
2023-01-05T16:41:23.473Z,3.97
2023-01-05T16:43:54.438Z,3.40
2023-01-05T16:46:37.315Z,4.00
2023-01-05T16:49:24.630Z,3.20
2023-01-05T16:51:53.151Z,3.67
2023-01-05T16:54:24.623Z,3.23
2023-01-05T16:56:58.081Z,3.20
2023-01-05T16:59:46.409Z,3.70
2023-01-05T17:02:54.183Z,3.50
2023-01-05T17:05:24.615Z,3.13
2023-01-05T17:07:59.300Z,3.37
2023-01-05T17:10:28.988Z,3.13
2023-01-05T17:13:01.719Z,2.97
2023-01-05T17:15:32.742Z,2.37
2023-01-05T17:18:00.619Z,2.27
2023-01-05T17:20:33.213Z,3.03
2023-01-05T17:23:01.013Z,3.40
2023-01-05T17:25:33.715Z,3.60
2023-01-05T17:28:01.466Z,3.03
2023-01-05T17:30:29.206Z,2.90
2023-01-05T17:32:56.872Z,2.93
2023-01-05T17:35:24.688Z,3.07
2023-01-05T17:37:52.379Z,2.63
2023-01-05T17:40:22.363Z,2.97
2023-01-05T17:42:51.475Z,3.40
2023-01-05T17:45:21.558Z,2.90
2023-01-05T17:47:50.087Z,3.07
2023-01-05T17:50:19.516Z,3.77
2023-01-05T17:52:47.391Z,3.70
2023-01-05T17:55:15.522Z,3.87
2023-01-05T17:57:43.214Z,4.13
2023-01-05T18:00:15.623Z,4.20
2023-01-05T18:02:43.591Z,3.87
2023-01-05T18:05:12.981Z,4.37
2023-01-05T18:07:42.210Z,3.50
2023-01-05T18:10:12.486Z,4.10
2023-01-05T18:15:11.211Z,4.40
2023-01-05T18:17:40.411Z,4.70
2023-01-05T18:20:09.423Z,5.73
2023-01-05T18:22:39.383Z,5.00
2023-01-05T18:25:07.885Z,5.27
2023-01-05T18:27:35.816Z,4.20
2023-01-05T18:30:04.652Z,4.73
2023-01-05T18:32:32.414Z,4.50
2023-01-05T18:35:04.410Z,4.33
2023-01-05T18:37:35.427Z,4.97
2023-01-05T18:40:03.526Z,4.97
2023-01-05T18:42:31.187Z,4.70
2023-01-05T18:45:01.537Z,5.27
2023-01-05T18:47:37.461Z,5.17
2023-01-05T18:50:08.137Z,5.53
2023-01-05T18:52:35.950Z,6.10
2023-01-05T18:55:03.824Z,5.23
2023-01-05T18:57:31.810Z,5.10
2023-01-05T19:00:00.161Z,5.77
2023-01-05T19:02:28.470Z,5.40
2023-01-05T19:04:56.737Z,6.57
2023-01-05T19:07:25.808Z,6.60
2023-01-05T19:09:54.244Z,6.77
2023-01-05T19:12:21.949Z,5.03
2023-01-05T19:14:49.729Z,4.67
2023-01-05T19:17:17.397Z,4.40
2023-01-05T19:19:45.035Z,4.40
2023-01-05T19:22:12.695Z,5.10
2023-01-05T19:24:41.743Z,4.90
2023-01-05T19:27:09.387Z,4.07
2023-01-05T19:29:37.038Z,3.90
2023-01-05T19:32:05.051Z,5.00
2023-01-05T19:34:32.674Z,4.40
2023-01-05T19:37:00.361Z,4.23
2023-01-05T19:39:28.091Z,4.63
2023-01-05T19:41:57.095Z,4.87
2023-01-05T19:44:24.768Z,3.90
2023-01-05T19:46:53.969Z,3.60
2023-01-05T19:49:23.325Z,3.23
2023-01-05T19:51:52.093Z,4.03
2023-01-05T19:54:20.603Z,4.27
2023-01-05T19:56:48.333Z,4.30
2023-01-05T19:59:21.333Z,4.80
2023-01-05T20:01:49.883Z,4.67
2023-01-05T20:04:18.006Z,5.03
2023-01-05T20:06:46.592Z,4.80
2023-01-05T20:09:17.107Z,5.30
2023-01-05T20:11:47.654Z,5.80
2023-01-05T20:14:19.242Z,5.47
2023-01-05T20:16:50.678Z,5.87
2023-01-05T20:19:19.512Z,5.20
2023-01-05T20:21:48.022Z,6.27
2023-01-05T20:24:18.854Z,6.00
2023-01-05T20:26:47.467Z,6.70
2023-01-05T20:29:18.158Z,6.87
2023-01-05T20:31:48.259Z,5.60
2023-01-05T20:34:20.311Z,6.20
2023-01-05T20:36:49.525Z,5.97
2023-01-05T20:39:20.213Z,6.07
2023-01-05T20:41:50.106Z,6.17
2023-01-05T20:44:23.206Z,5.90
2023-01-05T20:46:54.068Z,6.07
2023-01-05T20:49:22.791Z,5.87
2023-01-05T20:51:50.890Z,5.50
2023-01-05T20:54:18.643Z,5.70
2023-01-05T20:56:46.844Z,6.40
2023-01-05T20:59:17.681Z,5.53
2023-01-05T21:01:47.157Z,5.83
2023-01-05T21:04:15.157Z,6.33
2023-01-05T21:06:43.580Z,6.90
2023-01-05T21:09:11.863Z,7.10
2023-01-05T21:11:40.759Z,7.40
2023-01-05T21:14:09.835Z,8.10
2023-01-05T21:16:39.683Z,8.53
2023-01-05T21:19:10.035Z,8.90
2023-01-05T21:21:37.718Z,9.60
2023-01-05T21:24:07.706Z,10.40
2023-01-05T21:26:35.556Z,9.00
2023-01-05T21:29:05.631Z,10.00
2023-01-05T21:31:34.589Z,9.20
2023-01-05T21:34:02.281Z,9.83
2023-01-05T21:36:32.921Z,9.33
2023-01-05T21:39:03.903Z,10.10
2023-01-05T21:41:50.176Z,9.83
2023-01-05T21:44:18.651Z,8.67
2023-01-05T21:46:46.984Z,9.37
2023-01-05T21:49:15.203Z,9.83
2023-01-05T21:52:01.821Z,9.60
2023-01-05T21:54:47.156Z,10.57
2023-01-05T21:57:15.097Z,10.70
2023-01-05T21:59:43.599Z,10.07
2023-01-05T22:02:11.688Z,10.17
2023-01-05T22:04:39.366Z,9.70
2023-01-05T22:07:08.500Z,10.57
2023-01-05T22:09:36.597Z,9.93
2023-01-05T22:12:07.082Z,9.97
2023-01-05T22:14:34.764Z,9.57
2023-01-05T22:17:02.743Z,10.47
2023-01-05T22:19:30.443Z,10.07
2023-01-05T22:21:58.104Z,10.10
2023-01-05T22:24:27.146Z,9.83
2023-01-05T22:26:55.014Z,9.33
2023-01-05T22:29:22.711Z,9.80
2023-01-05T22:31:51.034Z,9.30
2023-01-05T22:34:18.901Z,8.87
2023-01-05T22:36:46.752Z,9.77
2023-01-05T22:39:14.595Z,9.80
2023-01-05T22:41:43.917Z,10.13
2023-01-05T22:44:11.571Z,10.33
2023-01-05T22:46:39.501Z,9.93
2023-01-05T22:49:07.228Z,9.47
2023-01-05T22:51:36.840Z,9.70
2023-01-05T22:54:05.427Z,10.50
2023-01-05T22:56:34.136Z,9.50
2023-01-05T22:59:03.934Z,9.87
2023-01-05T23:01:33.823Z,9.73
2023-01-05T23:04:03.078Z,10.03
2023-01-05T23:06:31.325Z,10.40
2023-01-05T23:08:59.686Z,9.97
2023-01-05T23:11:29.151Z,9.67
2023-01-05T23:13:58.037Z,10.37
2023-01-05T23:16:27.848Z,11.17
2023-01-05T23:18:56.054Z,10.17
2023-01-05T23:21:25.757Z,10.47
2023-01-05T23:23:54.664Z,9.27
2023-01-05T23:26:22.759Z,10.07
2023-01-05T23:28:50.496Z,10.37
2023-01-05T23:31:19.183Z,9.43
2023-01-05T23:33:49.290Z,7.90
2023-01-05T23:36:18.836Z,9.17
2023-01-05T23:38:47.554Z,8.73
2023-01-05T23:41:16.636Z,8.77
2023-01-05T23:43:46.036Z,8.03
2023-01-05T23:46:16.328Z,7.33
2023-01-05T23:48:44.556Z,7.93
2023-01-05T23:51:16.242Z,7.67
2023-01-05T23:53:45.473Z,7.13
2023-01-05T23:56:15.577Z,7.73
2023-01-05T23:58:44.245Z,8.10
